Tiempo atmosférico en la estación meteorológica de Villafáfila, Zamora (690 m.)



Fecha
DESCASC
Temp. máxima en grados centígrados (hora)
DESCASC
Temp. mínima en grados centígrados (hora)
DESCASC
Temp. media en grados centígrados
DESCASC
Racha de viento máxima en m/sg (hora)
DESCASC
Velocidad máxima media en intervalos de 10 minutos(hora)
DESCASC
Precipitaciones diarias en mm
DESCASC
Precipitaciones de 00:00 a 06:00 en mm
DESCASC
Precipitaciones de 06:00 a 12:00 en mm
DESCASC
Precipitaciones de 12:00 a 18:00 en mm
DESCASC
Precipitaciones de 18:00 a 24:00 en mm
DESCASC
16-06-2019 28 (18:00) 6.7 (06:20) 17.3 9.17 (15:40) 4.72 (20:50) 0 0 0 0 0
15-06-2019 24.2 (18:10) 6.4 (06:30) 15.3 8.33 (19:50) 5.83 (00:10) 0 0 0 0 0
14-06-2019 22.2 (15:10) 5.3 (06:30) 13.8 13.61 (16:50) 8.33 (18:20) 0 0 0 0 0
13-06-2019 23.1 (18:00) 4.8 (00:00) 14 13.06 (16:50) 6.67 (18:50) 0 0 0 0 0
12-06-2019 21.8 (18:40) 1.9 (00:00) 11.8 7.78 (20:50) 3.89 (17:20) 0 0 0 0 0
11-06-2019 20.2 (16:20) 9.2 (00:00) 14.7 12.5 (19:50) 8.33 (00:20) 0 0 0 0 0
10-06-2019 23.3 (16:50) 4.7 (00:00) 14 13.89 (20:50) 8.61 (21:30) 0 0 0 0 0
09-06-2019 24.1 (17:00) 6.2 (00:00) 15.2 11.39 (17:50) 7.5 (18:30) 0 0 0 0 0
08-06-2019 24.5 (18:00) 3.1 (00:00) 13.8 8.33 (18:10) 5.28 (20:50) 0 0 0 0 0
07-06-2019 18.7 (18:20) 6.6 (00:00) 12.7 11.11 (15:00) 7.22 (16:50) 0.2 0 0.2 0 0
06-06-2019 21.3 (16:40) 2.7 (00:00) 12 18.06 (21:20) 10.83 (21:20) 3 0 0 0 3
05-06-2019 19.8 (15:40) 7.5 (00:00) 13.6 12.5 (17:00) 8.33 (16:40) 0 0 0 0 0
04-06-2019 22.1 (14:20) 11.7 (00:00) 16.9 14.17 (17:50) 8.89 (16:40) 0 0 0 0 0
03-06-2019 29.1 (16:30) 14.7 (00:00) 21.9 13.33 (16:30) 7.78 (18:40) 0 0 0 0 0
02-06-2019 31 (16:30) 12.8 (00:00) 21.9 13.06 (17:30) 7.5 (17:30) 0 0 0 0 0
01-06-2019 33.6 (17:00) 10.2 (00:00) 21.9 9.17 (17:00) 5.83 (18:00) 0 0 0 0 0
31-05-2019 32.5 (18:00) 10.9 (00:00) 21.7 7.5 (14:20) 4.72 (00:40) 0 0 0 0 0
30-05-2019 30.6 (18:40) 7.1 (00:00) 18.9 9.44 (15:20) 5.28 (20:30) 0 0 0 0 0
29-05-2019 26.3 (18:20) 4.3 (00:00) 15.3 8.89 (18:30) 6.39 (21:10) 0 0 0 0 0
28-05-2019 25.2 (17:20) 5.5 (00:00) 15.4 14.17 (20:50) 8.61 (21:40) 0 0 0 0 0
27-05-2019 27.3 (17:00) 7.6 (00:00) 17.4 11.39 (22:10) 8.33 (22:00) 0 0 0 0 0
26-05-2019 29.1 (19:30) 4.9 (00:00) 17 10.56 (17:50) 6.11 (22:30) 0 0 0 0 0
25-05-2019 24.5 (19:00) 4.1 (00:00) 14.3 12.5 (20:50) 7.78 (21:10) 0 0 0 0 0
24-05-2019 23.6 (17:20) 6.4 (00:00) 15 14.72 (19:50) 9.17 (20:10) 0 0 0 0 0
23-05-2019 26.6 (17:50) 9.4 (00:00) 18 16.67 (15:40) 7.78 (22:50) 0 0 0 0 0
22-05-2019 27.2 (18:20) 6 (00:00) 16.6 8.33 (15:30) 5.83 (01:20) 0 0 0 0 0

Gráficas

Temp. máximas Temp. mínimas Temp. medias Precipitaciones Rachas de viento máximas Velocidades máximas media en intervalos de 10 minutos

Datos horarios

Fecha y hora oficial Temperatura (ºC) Velocidad del viento (km/h) Dirección del viento Racha (km/h) Dirección de racha Precipitación (mm) Presión (hPa) Tendencia (hPa) Humedad (%)
2019-06-20 23:00:00 13 26 Nordeste 42 Nordeste 0.6 -- -- 91
2019-06-20 22:00:00 13.6 33 Norte 46 Nordeste 1.6 -- -- 89
2019-06-20 21:00:00 15.4 7 Noroeste 23 Oeste 4.4 -- -- 88
2019-06-20 20:00:00 17.1 11 Este 31 Sudeste 3.2 -- -- 80
2019-06-20 19:00:00 25.1 14 Oeste 29 Noroeste 0 -- -- 39
2019-06-20 18:00:00 27 15 Oeste 26 Oeste 0 -- -- 34
2019-06-20 17:00:00 25.5 10 Sudoeste 17 Sudoeste 0 -- -- 37
2019-06-20 16:00:00 24.5 6 Oeste 14 Oeste 0 -- -- 41
2019-06-20 15:00:00 23.3 4 Sur 16 Sur 0 -- -- 45
2019-06-20 14:00:00 23.3 8 Este 13 Este 0 -- -- 46
2019-06-20 13:00:00 21.5 5 Noroeste 13 Nordeste 0 -- -- 51
2019-06-20 12:00:00 20.3 5 Nordeste 16 Nordeste 0 -- -- 56
2019-06-20 11:00:00 19.1 9 Este 21 Nordeste 0 -- -- 63
2019-06-20 10:00:00 16.3 16 Nordeste 22 Nordeste 0 -- -- 70
2019-06-20 09:00:00 15.1 11 Nordeste 18 Nordeste 0 -- -- 74
2019-06-20 08:00:00 12.3 6 Norte 11 Noroeste 0 -- -- 82
2019-06-20 07:00:00 10.8 8 Norte 14 Norte 0 -- -- 82
2019-06-20 06:00:00 11.6 9 Norte 11 Norte 0 -- -- 81
2019-06-20 05:00:00 12 4 Norte 13 Noroeste 0 -- -- 77
2019-06-20 04:00:00 13.2 14 Noroeste 18 Noroeste 0 -- -- 76
2019-06-20 03:00:00 12.6 9 Noroeste 10 Noroeste 0 -- -- 74
2019-06-20 02:00:00 12.5 9 Norte 11 Noroeste 0 -- -- 73
2019-06-20 01:00:00 13 7 Noroeste 15 Norte 0 -- -- 69
2019-06-20 00:00:00 14 8 Noroeste 16 Oeste 0 -- -- 62
2019-06-19 23:00:00 16.6 5 Oeste 16 Oeste 0 -- -- 57
2019-06-19 22:00:00 19.5 14 Oeste 26 Oeste 0 -- -- 51
2019-06-19 21:00:00 22.2 22 Oeste 36 Sudoeste 0 -- -- 45
2019-06-19 20:00:00 22.9 27 Sudoeste 39 Oeste 0 -- -- 44
2019-06-19 19:00:00 23.6 26 Sudoeste 40 Sudoeste 0 -- -- 42
2019-06-19 18:00:00 23.8 25 Sudoeste 40 Sudoeste 0 -- -- 44
2019-06-19 17:00:00 22.7 26 Sudoeste 40 Sudoeste 0 -- -- 47
2019-06-19 16:00:00 21.9 25 Sudoeste 42 Sudoeste 0 -- -- 53
2019-06-19 15:00:00 -- -- -- -- -- -- -- -- --
2019-06-19 14:00:00 -- -- -- -- -- -- -- -- --
2019-06-19 13:00:00 20.9 16 Sur 29 Sudoeste 0 -- -- 57
2019-06-19 12:00:00 19.5 16 Sur 26 Sudoeste 0 -- -- 67
2019-06-19 11:00:00 17.3 15 Sudoeste 23 Sudoeste 0 -- -- 73
2019-06-19 10:00:00 14.9 12 Sudoeste 21 Sudoeste 0 -- -- 91
2019-06-19 09:00:00 15.2 12 Sudoeste 17 Sur 0 -- -- 84
2019-06-19 08:00:00 14.5 12 Sur 17 Sur 0 -- -- 84
2019-06-19 07:00:00 14 6 Sur 15 Sudoeste 0 -- -- 86
2019-06-19 06:00:00 13.7 5 Sur 15 Sudoeste 0 -- -- 85
2019-06-19 05:00:00 13.7 10 Sur 20 Sur 0 -- -- 85
2019-06-19 04:00:00 14.5 12 Sudoeste 27 Sudoeste 0 -- -- 81
2019-06-19 03:00:00 15.3 15 Sudoeste 24 Sudoeste 0 -- -- 79
2019-06-19 02:00:00 15.6 8 Sudoeste 15 Sudoeste 0 -- -- 79
2019-06-19 01:00:00 16.5 10 Sudoeste 23 Sudoeste 0 -- -- 74
2019-06-19 00:00:00 17.4 15 Sudoeste 22 Sudoeste 0 -- -- 71
2019-06-18 23:00:00 17.5 10 Oeste 23 Sudoeste 0 -- -- 70
2019-06-18 22:00:00 18 18 Sudoeste 38 Oeste 0 -- -- 67
2019-06-18 21:00:00 19 26 Oeste 43 Sudoeste 0 -- -- 62
2019-06-18 20:00:00 21 31 Oeste 47 Sudoeste 0 -- -- 53
2019-06-18 19:00:00 23.4 35 Sudoeste 52 Sudoeste 0 -- -- 42
2019-06-18 18:00:00 23.2 30 Sudoeste 75 Sur 0 -- -- 42
2019-06-18 17:00:00 22.6 39 Sudoeste 55 Sudoeste 0 -- -- 47
2019-06-18 16:00:00 24.1 31 Sudoeste 49 Sudoeste 0 -- -- 46
2019-06-18 15:00:00 24.6 31 Oeste 60 Sudoeste 0 -- -- 42
2019-06-18 14:00:00 25.6 33 Sudoeste 55 Sudoeste 0 -- -- 33
2019-06-18 13:00:00 24.9 22 Sudoeste 46 Sur 0 -- -- 31
2019-06-18 12:00:00 23.4 25 Sudoeste 39 Sur 0 -- -- 30
2019-06-18 11:00:00 22.4 23 Sudoeste 39 Sudoeste 0 -- -- 28
2019-06-18 10:00:00 21 24 Sudoeste 40 Sudoeste 0 -- -- 27
2019-06-18 09:00:00 17.2 9 Sur 18 Sur 0 -- -- 46
2019-06-18 08:00:00 12.1 0 Calma -- -- 0 -- -- 61
2019-06-18 07:00:00 8.9 0 Calma 12 Oeste 0 -- -- 67
2019-06-18 06:00:00 9.8 7 Noroeste 10 Noroeste 0 -- -- 61
2019-06-18 05:00:00 10.3 6 Norte 8 Norte 0 -- -- 58
2019-06-18 04:00:00 11.6 4 Sur 12 Sudoeste 0 -- -- 53
2019-06-18 03:00:00 14.7 3 Nordeste 9 Este 0 -- -- 45
2019-06-18 02:00:00 17.7 6 Este 18 Nordeste 0 -- -- 39
2019-06-18 01:00:00 19.5 13 Nordeste 24 Sur 0 -- -- 36
2019-06-18 00:00:00 20.5 13 Sur 34 Oeste 0 -- -- 36
2019-06-17 23:00:00 20.9 24 Oeste 34 Oeste 0 -- -- 36
2019-06-17 22:00:00 20.9 8 Sur 24 Noroeste 0 -- -- 35
2019-06-17 21:00:00 22 8 Oeste 23 Noroeste 0 -- -- 33
2019-06-17 20:00:00 23.8 17 Oeste 30 Oeste 0 -- -- 30
2019-06-17 19:00:00 25.3 20 Oeste 41 Oeste 0 -- -- 26
2019-06-17 18:00:00 26.7 22 Oeste 36 Oeste 0 -- -- 25
2019-06-17 17:00:00 27.5 21 Sudoeste 37 Sudoeste 0 -- -- 21
2019-06-17 16:00:00 27.9 14 Sudoeste 30 Sudoeste 0 -- -- 22
2019-06-17 15:00:00 28.3 19 Sudoeste 50 Sudoeste 0 -- -- 21
2019-06-17 14:00:00 27 16 Sur 37 Sur 0 -- -- 27
2019-06-17 13:00:00 25.5 18 Sudoeste 35 Sur 0 -- -- 32
2019-06-17 12:00:00 24.2 13 Sur 22 Sur 0 -- -- 35
2019-06-17 11:00:00 21.2 4 Sur 9 Sur 0 -- -- 47
2019-06-17 10:00:00 18.3 0 Calma 10 Norte 0 -- -- 57
2019-06-17 09:00:00 15.3 7 Noroeste 13 Noroeste 0 -- -- 64
2019-06-17 08:00:00 11.3 6 Noroeste 12 Noroeste 0 -- -- 67
2019-06-17 07:00:00 8.6 9 Norte 13 Noroeste 0 -- -- 73
2019-06-17 06:00:00 8.5 8 Noroeste 10 Noroeste 0 -- -- 69
2019-06-17 05:00:00 9 8 Norte 10 Norte 0 -- -- 59
2019-06-17 04:00:00 9.9 4 Oeste 8 Noroeste 0 -- -- 56
2019-06-17 03:00:00 10.4 3 Norte 8 Noroeste 0 -- -- 55
2019-06-17 02:00:00 12.2 0 Calma 10 Este 0 -- -- 48
2019-06-17 01:00:00 13.5 0 Calma -- -- 0 -- -- 44
2019-06-17 00:00:00 15.2 2 Noroeste 7 Noroeste 0 -- -- 42
2019-06-16 23:00:00 17.7 4 Oeste 12 Oeste 0 -- -- 36
2019-06-16 22:00:00 22.2 10 Oeste 23 Oeste 0 -- -- 29
2019-06-16 21:00:00 25.8 17 Oeste 27 Sudoeste 0 -- -- 25
2019-06-16 20:00:00 26.9 14 Sudoeste 23 Sudoeste 0 -- -- 22
2019-06-16 19:00:00 27.8 5 Oeste 17 Sudeste 0 -- -- 22
2019-06-16 18:00:00 28 13 Sudeste 25 Sudeste 0 -- -- 23
2019-06-16 17:00:00 27.2 11 Sur 24 Sur 0 -- -- 24
2019-06-16 16:00:00 26.3 14 Sur 33 Sur 0 -- -- 24
2019-06-16 15:00:00 26.2 8 Sur 23 Sudoeste 0 -- -- 25
2019-06-16 14:00:00 25.4 6 Este 24 Sudeste 0 -- -- 28
2019-06-16 13:00:00 24 5 Norte 16 Norte 0 -- -- 33
2019-06-16 12:00:00 21.3 8 Norte 20 Noroeste 0 -- -- 40
2019-06-16 11:00:00 18.1 7 Norte 15 Norte 0 -- -- 49
2019-06-16 10:00:00 15.9 8 Norte 19 Nordeste 0 -- -- 56
2019-06-16 09:00:00 13.5 12 Nordeste 18 Norte 0 -- -- 64
2019-06-16 08:00:00 10.2 11 Norte 16 Norte 0 -- -- 79
2019-06-16 07:00:00 6.8 10 Noroeste 13 Noroeste 0 -- -- 87
2019-06-16 06:00:00 7 10 Noroeste 15 Nordeste 0 -- -- 83
2019-06-16 05:00:00 9.5 12 Nordeste 16 Nordeste 0 -- -- 79
2019-06-16 04:00:00 10.3 11 Nordeste 17 Nordeste 0 -- -- 76
2019-06-16 03:00:00 11 12 Nordeste 22 Este 0 -- -- 71
2019-06-16 02:00:00 10.5 10 Nordeste 14 Norte 0 -- -- 60
2019-06-16 01:00:00 11.9 11 Norte 15 Noroeste 0 -- -- 55
2019-06-16 00:00:00 13.5 10 Oeste 14 Oeste 0 -- -- 48
2019-06-15 23:00:00 16.1 7 Sudoeste 14 Sudoeste 0 -- -- 42
2019-06-15 22:00:00 19.1 10 Sudoeste 21 Sudoeste 0 -- -- 36
2019-06-15 21:00:00 22 11 Sudoeste 23 Sudoeste 0 -- -- 30
2019-06-15 20:00:00 23.3 13 Sudoeste 30 Sudoeste 0 -- -- 29
2019-06-15 19:00:00 23.8 10 Sudoeste 27 Sudoeste 0 -- -- 27
2019-06-15 18:00:00 24 9 Oeste 22 Sur 0 -- -- 27
2019-06-15 17:00:00 23.2 9 Sudoeste 19 Sur 0 -- -- 30
2019-06-15 16:00:00 22.4 8 Este 20 Sudeste 0 -- -- 30
2019-06-15 15:00:00 20.7 12 Sudoeste 24 Sur 0 -- -- 35
2019-06-15 14:00:00 19.3 9 Sudoeste 18 Sur 0 -- -- 39
2019-06-15 13:00:00 18.8 6 Sudeste 17 Sudeste 0 -- -- 40
2019-06-15 12:00:00 16.6 6 Sudoeste 15 Norte 0 -- -- 45
2019-06-15 11:00:00 16 6 Norte 18 Noroeste 0 -- -- 49
2019-06-15 10:00:00 13.9 9 Norte 18 Norte 0 -- -- 57
2019-06-15 09:00:00 11.7 6 Sudoeste 10 Oeste 0 -- -- 67
2019-06-15 08:00:00 8.1 3 Sur 8 Sudoeste 0 -- -- 80
2019-06-15 07:00:00 6.8 6 Sudoeste 11 Sudoeste 0 -- -- 82
2019-06-15 06:00:00 6.9 8 Sudoeste 15 Sur 0 -- -- 78
2019-06-15 05:00:00 8.8 7 Sudoeste 13 Sudoeste 0 -- -- 75
2019-06-15 04:00:00 10 8 Sudoeste 11 Sudoeste 0 -- -- 71
2019-06-15 03:00:00 10.9 5 Sudoeste 9 Oeste 0 -- -- 67
2019-06-15 02:00:00 11.1 6 Sudoeste 17 Oeste 0 -- -- 66
2019-06-15 01:00:00 11.6 12 Oeste 29 Oeste 0 -- -- 63
2019-06-15 00:00:00 12.8 22 Oeste 32 Oeste 0 -- -- 57
2019-06-14 23:00:00 13.9 18 Oeste 39 Oeste 0 -- -- 52
2019-06-14 22:00:00 15.6 21 Oeste 41 Sudoeste 0 -- -- 47
2019-06-14 21:00:00 17.6 27 Sudoeste 42 Oeste 0 -- -- 38
2019-06-14 20:00:00 19.5 25 Sudoeste 41 Oeste 0 -- -- 32
2019-06-14 19:00:00 20.4 26 Sudoeste 46 Sudoeste 0 -- -- 33
2019-06-14 18:00:00 20.8 28 Sudoeste 48 Sudoeste 0 -- -- 31
2019-06-14 17:00:00 21.2 25 Sudoeste 49 Sudoeste 0 -- -- 33
2019-06-14 16:00:00 21.7 22 Sudoeste 39 Sudoeste 0 -- -- 32
2019-06-14 15:00:00 21.9 17 Sudoeste 28 Sudoeste 0 -- -- 33
2019-06-14 14:00:00 20.8 6 Sudoeste 26 Sur 0 -- -- 34
2019-06-14 13:00:00 19.8 6 Sudeste 16 Oeste 0 -- -- 44
2019-06-14 12:00:00 18.2 5 Norte 18 Este 0 -- -- 48
2019-06-14 11:00:00 16.4 7 Nordeste 17 Nordeste 0 -- -- 55
2019-06-14 10:00:00 14.2 10 Nordeste 21 Norte 0 -- -- 61
2019-06-14 09:00:00 11 12 Noroeste 19 Noroeste 0 -- -- 72
2019-06-14 08:00:00 8.7 11 Noroeste 17 Norte 0 -- -- 82
2019-06-14 07:00:00 6 11 Norte 18 Norte 0 -- -- 88
2019-06-14 06:00:00 5.4 11 Norte 14 Norte 0 -- -- 86
2019-06-14 05:00:00 6.7 8 Norte 12 Nordeste 0 -- -- 80
2019-06-14 04:00:00 7.6 10 Norte 15 Nordeste 0 -- -- 78
2019-06-14 03:00:00 7.9 11 Nordeste 14 Nordeste 0 -- -- 75
2019-06-14 02:00:00 8.8 8 Noroeste 13 Norte 0 -- -- 61
2019-06-14 01:00:00 10.1 10 Norte 19 Noroeste 0 -- -- 57
2019-06-14 00:00:00 11.3 12 Noroeste 16 Noroeste 0 -- -- 53
2019-06-13 23:00:00 13.9 11 Noroeste 19 Noroeste 0 -- -- 44
2019-06-13 22:00:00 17.4 15 Noroeste 29 Oeste 0 -- -- 37
2019-06-13 21:00:00 20.6 18 Oeste 32 Oeste 0 -- -- 29
2019-06-13 20:00:00 21.7 17 Sudoeste 40 Sur 0 -- -- 28
2019-06-13 19:00:00 22.4 15 Oeste 36 Sudoeste 0 -- -- 27
2019-06-13 18:00:00 23.1 20 Sudoeste 41 Sudoeste 0 -- -- 27
2019-06-13 17:00:00 22.9 19 Sudoeste 47 Sudoeste 0 -- -- 24
2019-06-13 16:00:00 22.2 14 Sudoeste 39 Sudoeste 0 -- -- 26
2019-06-13 15:00:00 21.2 17 Sudoeste 35 Sudoeste 0 -- -- 30
2019-06-13 14:00:00 19.9 13 Sur 26 Sudoeste 0 -- -- 34
2019-06-13 13:00:00 19.1 12 Sur 21 Sur 0 -- -- 40
2019-06-13 12:00:00 17.6 3 Norte 12 Norte 0 -- -- 45
2019-06-13 11:00:00 15.1 3 Nordeste 13 Norte 0 -- -- 53
2019-06-13 10:00:00 13.6 8 Norte 18 Norte 0 -- -- 58
2019-06-13 09:00:00 11.3 10 Norte 15 Norte 0 -- -- 66
2019-06-13 08:00:00 7.4 10 Noroeste 13 Norte 0 -- -- 81
2019-06-13 07:00:00 5 9 Noroeste 13 Noroeste 0 -- -- 86
2019-06-13 06:00:00 4.8 9 Noroeste 15 Noroeste 0 -- -- 85
2019-06-13 05:00:00 6 10 Norte 13 Norte 0 -- -- 79
2019-06-13 04:00:00 7.1 10 Norte 20 Nordeste 0 -- -- 77
2019-06-13 03:00:00 9.5 15 Nordeste 26 Nordeste 0 -- -- 73
2019-06-13 02:00:00 10.2 14 Nordeste 21 Nordeste 0 -- -- 63
2019-06-13 01:00:00 11.2 13 Norte 20 Norte 0 -- -- 53
2019-06-13 00:00:00 10.7 11 Noroeste 17 Noroeste 0 -- -- 49
2019-06-12 23:00:00 12.5 11 Noroeste 14 Oeste 0 -- -- 40
2019-06-12 22:00:00 16.6 12 Oeste 19 Sudoeste 0 -- -- 30
2019-06-12 21:00:00 20.2 13 Sudoeste 28 Oeste 0 -- -- 23
2019-06-12 20:00:00 20.9 13 Sudoeste 23 Oeste 0 -- -- 25
2019-06-12 19:00:00 21.2 13 Sur 23 Sudoeste 0 -- -- 23
2019-06-12 18:00:00 21.2 14 Sudoeste 24 Sudoeste 0 -- -- 23
2019-06-12 17:00:00 20.6 11 Sudoeste 24 Sudoeste 0 -- -- 23
2019-06-12 16:00:00 19.8 9 Sudeste 19 Este 0 -- -- 25
2019-06-12 15:00:00 19.2 6 Sur 21 Sur 0 -- -- 26
2019-06-12 14:00:00 18.1 9 Sur 19 Sur 0 -- -- 32
2019-06-12 13:00:00 16.7 12 Sudeste 22 Sur 0 -- -- 35
2019-06-12 12:00:00 15.1 5 Sur 16 Sudeste 0 -- -- 38
2019-06-12 11:00:00 13.6 8 Norte 21 Noroeste 0 -- -- 43
2019-06-12 10:00:00 12 13 Noroeste 22 Noroeste 0 -- -- 48
2019-06-12 09:00:00 9.6 12 Noroeste 17 Noroeste 0 -- -- 57
2019-06-12 08:00:00 6.6 6 Noroeste 10 Noroeste 0 -- -- 73
2019-06-12 07:00:00 1.9 0 Calma 8 Noroeste 0 -- -- 78
2019-06-12 06:00:00 2.8 0 Calma 6 Norte 0 -- -- 77
2019-06-12 05:00:00 3.4 6 Nordeste 14 Norte 0 -- -- 75
2019-06-12 04:00:00 3.8 9 Norte 15 Norte 0 -- -- 74
2019-06-12 03:00:00 4.7 4 Norte 8 Nordeste 0 -- -- 69
2019-06-12 02:00:00 5.2 6 Norte 9 Norte 0 -- -- 67
2019-06-12 01:00:00 6.9 5 Norte 10 Norte 0 -- -- 63
2019-06-12 00:00:00 9.2 10 Norte 19 Norte 0 -- -- 54
2019-06-11 23:00:00 11.3 12 Norte 29 Norte 0 -- -- 50
2019-06-11 22:00:00 13.6 18 Norte 31 Norte 0 -- -- 44
2019-06-11 21:00:00 16.7 26 Norte 37 Norte 0 -- -- 37
2019-06-11 20:00:00 18.7 23 Norte 45 Noroeste 0 -- -- 33
2019-06-11 19:00:00 19.6 21 Norte 36 Norte 0 -- -- 30
2019-06-11 18:00:00 20.2 21 Norte 43 Norte 0 -- -- 30
2019-06-11 17:00:00 19.1 22 Norte 36 Norte 0 -- -- 31
2019-06-11 16:00:00 19 25 Norte 44 Norte 0 -- -- 29
2019-06-11 15:00:00 18.6 22 Noroeste 37 Noroeste 0 -- -- 30
2019-06-11 14:00:00 18.2 22 Norte 40 Norte 0 -- -- 31
2019-06-11 13:00:00 17 22 Norte 38 Noroeste 0 -- -- 34
2019-06-11 12:00:00 15.5 22 Norte 42 Norte 0 -- -- 38
2019-06-11 11:00:00 14.8 24 Norte 36 Norte 0 -- -- 43
2019-06-11 10:00:00 13.5 21 Norte 38 Norte 0 -- -- 49
2019-06-11 09:00:00 11.9 24 Norte 41 Noroeste 0 -- -- 55
2019-06-11 08:00:00 10.4 22 Noroeste 38 Norte 0 -- -- 60
2019-06-11 07:00:00 10 13 Norte 20 Norte 0 -- -- 61
2019-06-11 06:00:00 10.6 15 Norte 28 Noroeste 0 -- -- 59
2019-06-11 05:00:00 11.3 20 Noroeste 29 Noroeste 0 -- -- 57
2019-06-11 04:00:00 11.8 14 Noroeste 20 Norte 0 -- -- 59
2019-06-11 03:00:00 12.4 14 Norte 20 Norte 0 -- -- 58
2019-06-11 02:00:00 13.3 14 Norte 20 Norte 0 -- -- 60
2019-06-11 01:00:00 13.7 13 Nordeste 44 Norte 0 -- -- 60
2019-06-11 00:00:00 15 21 Noroeste 37 Noroeste 0 -- -- 49
2019-06-10 23:00:00 15.9 27 Noroeste 42 Norte 0 -- -- 43
2019-06-10 22:00:00 17.1 25 Noroeste 42 Noroeste 0 -- -- 38
2019-06-10 21:00:00 19.2 30 Norte 50 Noroeste 0 -- -- 31
2019-06-10 20:00:00 21.8 26 Noroeste 35 Norte 0 -- -- 28
2019-06-10 19:00:00 22.5 13 Oeste 30 Oeste 0 -- -- 30
2019-06-10 18:00:00 23.3 15 Oeste 31 Oeste 0 -- -- 29
2019-06-10 17:00:00 23.2 12 Oeste 29 Oeste 0 -- -- 29
2019-06-10 16:00:00 21.4 11 Oeste 26 Oeste 0 -- -- 33
2019-06-10 15:00:00 20.6 6 Noroeste 26 Noroeste 0 -- -- 36
2019-06-10 14:00:00 18.6 5 Noroeste 19 Noroeste 0 -- -- 40
2019-06-10 13:00:00 17.9 10 Noroeste 20 Noroeste 0 -- -- 41
2019-06-10 12:00:00 16.4 5 Noroeste 15 Norte 0 -- -- 49
2019-06-10 11:00:00 15 9 Norte 16 Norte 0 -- -- 56
2019-06-10 10:00:00 13.8 7 Norte 14 Nordeste 0 -- -- 65
2019-06-10 09:00:00 11.2 6 Norte 11 Norte 0 -- -- 76
2019-06-10 08:00:00 7.1 5 Noroeste 9 Noroeste 0 -- -- 91
2019-06-10 07:00:00 4.7 7 Noroeste 8 Noroeste 0 -- -- 90
2019-06-10 06:00:00 5.2 3 Noroeste 6 Noroeste 0 -- -- 88
2019-06-10 05:00:00 6 4 Norte 8 Norte 0 -- -- 86
2019-06-10 04:00:00 6.5 6 Norte 8 Norte 0 -- -- 87
2019-06-10 03:00:00 7.7 6 Norte 9 Nordeste 0 -- -- 83
2019-06-10 02:00:00 9.4 8 Nordeste 12 Nordeste 0 -- -- 80
2019-06-10 01:00:00 10.5 8 Nordeste 14 Nordeste 0 -- -- 75
2019-06-10 00:00:00 12.5 14 Nordeste 31 Este 0 -- -- 69
2019-06-09 23:00:00 15.5 20 Nordeste 33 Norte 0 -- -- 61
2019-06-09 22:00:00 16.5 14 Noroeste 32 Noroeste 0 -- -- 48
2019-06-09 21:00:00 19.4 26 Noroeste 38 Noroeste 0 -- -- 41
2019-06-09 20:00:00 20.7 13 Noroeste 30 Noroeste 0 -- -- 37
2019-06-09 19:00:00 20.7 15 Noroeste 39 Oeste 0 -- -- 39
2019-06-09 18:00:00 22.2 19 Sudoeste 41 Sudoeste 0 -- -- 32
2019-06-09 17:00:00 24.1 12 Sudoeste 36 Sudoeste 0 -- -- 27
2019-06-09 16:00:00 23.3 16 Sudoeste 30 Sur 0 -- -- 30
2019-06-09 15:00:00 22.4 14 Sudoeste 31 Oeste 0 -- -- 30
2019-06-09 14:00:00 21.6 17 Sudoeste 33 Oeste 0 -- -- 30
2019-06-09 13:00:00 19.7 13 Sudoeste 22 Sudoeste 0 -- -- 39
2019-06-09 12:00:00 18 11 Sur 20 Sur 0 -- -- 49
2019-06-09 11:00:00 16.6 2 Norte 13 Este 0 -- -- 60
2019-06-09 10:00:00 14.9 5 Este 12 Este 0 -- -- 65
2019-06-09 09:00:00 12.3 4 Norte 8 Noroeste 0 -- -- 74
2019-06-09 08:00:00 8.6 0 Calma 5 Noroeste 0 -- -- 84
2019-06-09 07:00:00 6.2 5 Norte 6 Norte 0 -- -- 85
2019-06-09 06:00:00 7.3 0 Calma 5 Este 0 -- -- 82
2019-06-09 05:00:00 8.6 5 Este 9 Nordeste 0 -- -- 78
2019-06-09 04:00:00 10 8 Nordeste 14 Nordeste 0 -- -- 78
2019-06-09 03:00:00 11.6 9 Nordeste 23 Nordeste 0 -- -- 73
2019-06-09 02:00:00 13.6 17 Nordeste 24 Nordeste 0 -- -- 68
2019-06-09 01:00:00 15.3 12 Norte 21 Norte 0 -- -- 55
2019-06-09 00:00:00 13.6 10 Noroeste 17 Noroeste 0 -- -- 55
2019-06-08 23:00:00 15.6 6 Noroeste 12 Noroeste 0 -- -- 43
2019-06-08 22:00:00 18.4 11 Noroeste 17 Noroeste 0 -- -- 35
2019-06-08 21:00:00 21.1 15 Noroeste 25 Oeste 0 -- -- 29
2019-06-08 20:00:00 22.7 15 Noroeste 23 Oeste 0 -- -- 24
2019-06-08 19:00:00 23.6 16 Sudoeste 30 Sudoeste 0 -- -- 23
2019-06-08 18:00:00 24.5 14 Sudoeste 23 Sur 0 -- -- 23
2019-06-08 17:00:00 23.8 8 Sudoeste 28 Sudoeste 0 -- -- 24
2019-06-08 16:00:00 23.3 8 Sur 21 Sudoeste 0 -- -- 25
2019-06-08 15:00:00 22.7 13 Sudeste 21 Sudeste 0 -- -- 28
2019-06-08 14:00:00 20.9 6 Noroeste 23 Nordeste 0 -- -- 31
2019-06-08 13:00:00 20.1 8 Nordeste 24 Nordeste 0 -- -- 36
2019-06-08 12:00:00 18.4 13 Nordeste 21 Nordeste 0 -- -- 40
2019-06-08 11:00:00 15.1 9 Norte 18 Norte 0 -- -- 54
2019-06-08 10:00:00 12.6 8 Nordeste 15 Nordeste 0 -- -- 64
2019-06-08 09:00:00 9.8 11 Nordeste 18 Nordeste 0 -- -- 74
2019-06-08 08:00:00 5.8 9 Norte 14 Norte 0 -- -- 87
2019-06-08 07:00:00 3.3 10 Norte 14 Norte 0 -- -- 91
2019-06-08 06:00:00 3.6 11 Noroeste 17 Noroeste 0 -- -- 88
2019-06-08 05:00:00 4.7 8 Nordeste 19 Este 0 -- -- 88
2019-06-08 04:00:00 4.5 9 Noroeste 12 Noroeste 0 -- -- 86
2019-06-08 03:00:00 5.3 5 Noroeste 10 Norte 0 -- -- 83
2019-06-08 02:00:00 5.6 10 Norte 16 Noroeste 0 -- -- 81
2019-06-08 01:00:00 7 10 Norte 15 Norte 0 -- -- 74
2019-06-08 00:00:00 7.8 10 Norte 15 Norte 0 -- -- 66
2019-06-07 23:00:00 10.1 11 Norte 21 Noroeste 0 -- -- 60
2019-06-07 22:00:00 13.3 12 Norte 22 Oeste 0 -- -- 49
2019-06-07 21:00:00 16.7 15 Oeste 26 Oeste 0 -- -- 35
2019-06-07 20:00:00 17.6 16 Oeste 32 Sudoeste 0 -- -- 34
2019-06-07 19:00:00 18 22 Sudoeste 36 Oeste 0 -- -- 35
2019-06-07 18:00:00 17.8 22 Oeste 39 Oeste 0 -- -- 35
2019-06-07 17:00:00 17.7 19 Sudoeste 40 Sudoeste 0 -- -- 35
2019-06-07 16:00:00 16.4 23 Oeste 39 Oeste 0 -- -- 38
2019-06-07 15:00:00 16.3 17 Sudoeste 40 Sudeste 0 -- -- 39
2019-06-07 14:00:00 16.2 15 Sudoeste 35 Oeste 0 -- -- 42
2019-06-07 13:00:00 15.2 18 Sudoeste 37 Oeste 0 -- -- 46
2019-06-07 12:00:00 13.8 13 Sudoeste 32 Oeste 0 -- -- 50
2019-06-07 11:00:00 12.1 18 Sudoeste 30 Sudoeste 0 -- -- 62
2019-06-07 10:00:00 10.3 18 Sudoeste 35 Oeste 0 -- -- 69
2019-06-07 09:00:00 9 23 Sudoeste 34 Sudoeste 0.2 -- -- 76
2019-06-07 08:00:00 7.7 10 Sudoeste 26 Sudoeste 0 -- -- 83
2019-06-07 07:00:00 6.6 21 Sudoeste 31 Sudoeste 0 -- -- 86
2019-06-07 06:00:00 7.2 20 Sudoeste 31 Oeste 0 -- -- 84
2019-06-07 05:00:00 7.4 16 Sudoeste 34 Sudoeste 0 -- -- 86
2019-06-07 04:00:00 7.8 22 Sudoeste 33 Sudoeste 0 -- -- 84
2019-06-07 03:00:00 8.1 18 Sudoeste 33 Sudoeste 0 -- -- 85
2019-06-07 02:00:00 8.3 13 Sudoeste 36 Sudoeste 0 -- -- 85
2019-06-07 01:00:00 8.6 19 Sudoeste 32 Sudoeste 0 -- -- 84
2019-06-07 00:00:00 9.6 19 Sudoeste 37 Sudoeste 0 -- -- 83
2019-06-06 23:00:00 9.9 24 Sudoeste 39 Oeste 0.4 -- -- 81
2019-06-06 22:00:00 10.8 25 Oeste 65 Sudoeste 2 -- -- 87
2019-06-06 21:00:00 15.2 31 Sudoeste 50 Sudoeste 0.2 -- -- 66
2019-06-06 20:00:00 14.5 22 Sudoeste 51 Sudoeste 0.4 -- -- 70
2019-06-06 19:00:00 15.9 33 Sudoeste 62 Sudoeste 0 -- -- 62
2019-06-06 18:00:00 18.9 37 Sur 55 Sudoeste 0 -- -- 41
2019-06-06 17:00:00 20.5 35 Sur 54 Sudoeste 0 -- -- 35
2019-06-06 16:00:00 20.6 29 Sur 47 Sur 0 -- -- 32
2019-06-06 15:00:00 18.9 27 Sur 57 Sur 0 -- -- 34
2019-06-06 14:00:00 17.9 26 Sur 42 Sur 0 -- -- 38
2019-06-06 13:00:00 16.6 20 Sur 34 Sur 0 -- -- 39
2019-06-06 12:00:00 14.7 19 Sur 33 Sur 0 -- -- 44
2019-06-06 11:00:00 13.5 15 Sur 24 Sur 0 -- -- 49
2019-06-06 10:00:00 11.8 11 Sur 17 Sur 0 -- -- 57
2019-06-06 09:00:00 9.1 7 Sur 12 Sudoeste 0 -- -- 68
2019-06-06 08:00:00 5.7 5 Sudoeste 10 Sudoeste 0 -- -- 75
2019-06-06 07:00:00 3.4 0 Calma 10 Sur 0 -- -- 77
2019-06-06 06:00:00 2.7 4 Sur 7 Sudeste 0 -- -- 79
2019-06-06 05:00:00 3.6 0 Calma 6 Sur 0 -- -- 74
2019-06-06 04:00:00 4.9 5 Sudeste 9 Sudeste 0 -- -- 75
2019-06-06 03:00:00 6.1 0 Calma 4 Sudeste 0 -- -- 69
2019-06-06 02:00:00 7.8 2 Sudoeste 5 Este 0 -- -- 64
2019-06-06 01:00:00 9.5 0 Calma 9 Norte 0 -- -- 60
2019-06-06 00:00:00 10.3 9 Norte 22 Noroeste 0 -- -- 58
2019-06-05 23:00:00 11.4 16 Norte 24 Norte 0 -- -- 55
2019-06-05 22:00:00 13.3 15 Noroeste 31 Oeste 0 -- -- 45
2019-06-05 21:00:00 15.1 24 Oeste 34 Oeste 0 -- -- 41
2019-06-05 20:00:00 16.2 22 Oeste 38 Oeste 0 -- -- 36
2019-06-05 19:00:00 17 26 Oeste 39 Oeste 0 -- -- 33
2019-06-05 18:00:00 18 24 Sudoeste 44 Oeste 0 -- -- 27
2019-06-05 17:00:00 18.7 25 Oeste 45 Oeste 0 -- -- 31
2019-06-05 16:00:00 18.2 27 Oeste 42 Oeste 0 -- -- 29
2019-06-05 15:00:00 18.5 24 Oeste 40 Oeste 0 -- -- 30
2019-06-05 14:00:00 17 16 Oeste 35 Oeste 0 -- -- 36
2019-06-05 13:00:00 16.4 9 Sudoeste 26 Oeste 0 -- -- 39
2019-06-05 12:00:00 15.2 18 Oeste 33 Noroeste 0 -- -- 42
2019-06-05 11:00:00 14.3 14 Oeste 30 Noroeste 0 -- -- 46
2019-06-05 10:00:00 13.9 20 Oeste 30 Oeste 0 -- -- 49
2019-06-05 09:00:00 12.2 13 Oeste 22 Oeste 0 -- -- 55
2019-06-05 08:00:00 9.4 14 Oeste 19 Oeste 0 -- -- 68
2019-06-05 07:00:00 8 12 Sudoeste 18 Oeste 0 -- -- 73
2019-06-05 06:00:00 7.7 6 Oeste 13 Sudoeste 0 -- -- 72
2019-06-05 05:00:00 8.1 9 Sudoeste 18 Oeste 0 -- -- 70
2019-06-05 04:00:00 9.8 13 Oeste 22 Oeste 0 -- -- 65
2019-06-05 03:00:00 10.9 16 Noroeste 23 Noroeste 0 -- -- 63
2019-06-05 02:00:00 10.8 12 Noroeste 27 Noroeste 0 -- -- 65
2019-06-05 01:00:00 12.2 15 Noroeste 30 Noroeste 0 -- -- 61
2019-06-05 00:00:00 14.5 12 Oeste 31 Oeste 0 -- -- 48
2019-06-04 23:00:00 15.4 14 Oeste 30 Oeste 0 -- -- 45
2019-06-04 22:00:00 16.7 18 Oeste 28 Sudoeste 0 -- -- 41
2019-06-04 21:00:00 17.6 21 Sudoeste 37 Sudoeste 0 -- -- 44
2019-06-04 20:00:00 18.9 26 Sudoeste 44 Oeste 0 -- -- 43
2019-06-04 19:00:00 20.4 29 Oeste 43 Oeste 0 -- -- 43
2019-06-04 18:00:00 20.8 26 Oeste 51 Oeste 0 -- -- 45
2019-06-04 17:00:00 20.7 29 Oeste 48 Oeste 0 -- -- 51
2019-06-04 16:00:00 21.2 29 Oeste 45 Sudoeste 0 -- -- 49
2019-06-04 15:00:00 21.5 28 Sudoeste 46 Sudoeste 0 -- -- 47
2019-06-04 14:00:00 20.8 22 Sudoeste 38 Sudoeste 0 -- -- 48
2019-06-04 13:00:00 20.1 23 Sudoeste 42 Oeste 0 -- -- 50
2019-06-04 12:00:00 19.3 22 Sudoeste 37 Sudoeste 0 -- -- 53
2019-06-04 11:00:00 17.1 25 Sudoeste 38 Sudoeste 0 -- -- 59
2019-06-04 10:00:00 15.2 26 Sudoeste 41 Sudoeste 0 -- -- 65
2019-06-04 09:00:00 14.2 15 Sudoeste 25 Sudoeste 0 -- -- 67
2019-06-04 08:00:00 12.7 12 Sudoeste 19 Sudoeste 0 -- -- 75
2019-06-04 07:00:00 11.7 13 Sudoeste 20 Oeste 0 -- -- 79
2019-06-04 06:00:00 12.3 10 Sudoeste 20 Oeste 0 -- -- 79
2019-06-04 05:00:00 12.7 12 Sudoeste 26 Sudoeste 0 -- -- 79
2019-06-04 04:00:00 13.9 20 Sudoeste 27 Sudoeste 0 -- -- 76
2019-06-04 03:00:00 14.7 12 Sudoeste 18 Sudoeste 0 -- -- 73
2019-06-04 02:00:00 16 10 Sudoeste 21 Sudoeste 0 -- -- 70
2019-06-04 01:00:00 17.4 11 Sudoeste 21 Oeste 0 -- -- 65
2019-06-04 00:00:00 19.2 12 Oeste 26 Oeste 0 -- -- 60
2019-06-03 23:00:00 21.2 18 Oeste 30 Oeste 0 -- -- 56
2019-06-03 22:00:00 23.6 16 Oeste 31 Oeste 0 -- -- 49
2019-06-03 21:00:00 26.2 18 Oeste 32 Sudoeste 0 -- -- 40
2019-06-03 20:00:00 27.5 19 Sudoeste 42 Oeste 0 -- -- 34
2019-06-03 19:00:00 27.9 23 Oeste 47 Sudoeste 0 -- -- 33
2019-06-03 18:00:00 28.6 23 Sudoeste 45 Sudoeste 0 -- -- 30
2019-06-03 17:00:00 29.1 23 Sudoeste 48 Sudoeste 0 -- -- 30
2019-06-03 16:00:00 28.7 18 Sudoeste 44 Oeste 0 -- -- 31
2019-06-03 15:00:00 28.1 18 Sudoeste 40 Sudoeste 0 -- -- 35
2019-06-03 14:00:00 27.3 17 Sur 30 Sudeste 0 -- -- 35
2019-06-03 13:00:00 26.1 12 Sur 28 Sudoeste 0 -- -- 36
2019-06-03 12:00:00 24.2 9 Sudoeste 20 Sudoeste 0 -- -- 35
2019-06-03 11:00:00 22.5 4 Sudoeste 10 Sudoeste 0 -- -- 34
2019-06-03 10:00:00 19.8 3 Sudoeste 10 Sudoeste 0 -- -- 40
2019-06-03 09:00:00 18.5 7 Sudoeste 14 Sudoeste 0 -- -- 42
2019-06-03 08:00:00 15 4 Sur 9 Sudoeste 0 -- -- 57
2019-06-03 07:00:00 14.8 7 Sur 9 Sudoeste 0 -- -- 56
2019-06-03 06:00:00 15.4 6 Oeste 9 Sudoeste 0 -- -- 52
2019-06-03 05:00:00 17 5 Sudoeste 9 Sur 0 -- -- 48
2019-06-03 04:00:00 17.3 3 Noroeste 14 Sudoeste 0 -- -- 48
2019-06-03 03:00:00 18 9 Sur 13 Sur 0 -- -- 47
2019-06-03 02:00:00 19.2 10 Sudoeste 21 Sudoeste 0 -- -- 44
2019-06-03 01:00:00 20.3 10 Sudoeste 16 Oeste 0 -- -- 39
2019-06-03 00:00:00 21 9 Sudoeste 18 Sudoeste 0 -- -- 32
2019-06-02 23:00:00 21.9 6 Oeste 20 Oeste 0 -- -- 30
2019-06-02 22:00:00 23.7 12 Oeste 25 Oeste 0 -- -- 26
2019-06-02 21:00:00 26.3 20 Oeste 30 Oeste 0 -- -- 22
2019-06-02 20:00:00 28.7 21 Oeste 34 Oeste 0 -- -- 22
2019-06-02 19:00:00 29.9 22 Oeste 38 Oeste 0 -- -- 19
2019-06-02 18:00:00 30 21 Sudoeste 47 Oeste 0 -- -- 18
2019-06-02 17:00:00 30.6 24 Oeste 42 Sudoeste 0 -- -- 16
2019-06-02 16:00:00 30.4 23 Sudoeste 41 Sudoeste 0 -- -- 19
2019-06-02 15:00:00 30.2 24 Sudoeste 44 Oeste 0 -- -- 19
2019-06-02 14:00:00 29.5 18 Oeste 37 Sudoeste 0 -- -- 19
2019-06-02 13:00:00 29.5 17 Oeste 32 Sudoeste 0 -- -- 18
2019-06-02 12:00:00 27.3 11 Sudoeste 23 Sudoeste 0 -- -- 22
2019-06-02 11:00:00 23.3 5 Sur 11 Sudoeste 0 -- -- 38
2019-06-02 10:00:00 20.9 5 Sur 10 Sur 0 -- -- 43
2019-06-02 09:00:00 17.5 7 Sur 12 Sur 0 -- -- 50
2019-06-02 08:00:00 15.3 0 Calma 6 Sudeste 0 -- -- 58
2019-06-02 07:00:00 12.8 3 Noroeste 13 Oeste 0 -- -- 62
2019-06-02 06:00:00 13.3 12 Oeste 14 Oeste 0 -- -- 59
2019-06-02 05:00:00 13.7 8 Oeste 13 Sudoeste 0 -- -- 58
2019-06-02 04:00:00 14.6 4 Sur 13 Noroeste 0 -- -- 61
2019-06-02 03:00:00 15 8 Noroeste 10 Noroeste 0 -- -- 56
2019-06-02 02:00:00 16.8 7 Noroeste 8 Norte 0 -- -- 49
2019-06-02 01:00:00 18.8 6 Noroeste 17 Oeste 0 -- -- 46
2019-06-02 00:00:00 20.9 14 Oeste 19 Noroeste 0 -- -- 40
2019-06-01 23:00:00 21 15 Noroeste 17 Noroeste 0 -- -- 40
2019-06-01 22:00:00 25.7 7 Oeste 21 Oeste 0 -- -- 31
2019-06-01 21:00:00 30.5 13 Oeste 25 Oeste 0 -- -- 24
2019-06-01 20:00:00 32.1 14 Oeste 27 Sudoeste 0 -- -- 20
2019-06-01 19:00:00 32.9 18 Oeste 31 Oeste 0 -- -- 19
2019-06-01 18:00:00 33.5 21 Sudoeste 31 Oeste 0 -- -- 19
2019-06-01 17:00:00 33.6 17 Oeste 33 Oeste 0 -- -- 19
2019-06-01 16:00:00 32.4 14 Sudoeste 28 Sudoeste 0 -- -- 20
2019-06-01 15:00:00 32.2 14 Sudoeste 27 Sudoeste 0 -- -- 21
2019-06-01 14:00:00 31.8 9 Oeste 18 Oeste 0 -- -- 21
2019-06-01 13:00:00 29.9 3 Sur 13 Noroeste 0 -- -- 25
2019-06-01 12:00:00 27.5 4 Noroeste 12 Noroeste 0 -- -- 29
2019-06-01 11:00:00 24.6 8 Norte 11 Norte 0 -- -- 35
2019-06-01 10:00:00 21.8 5 Norte 13 Norte 0 -- -- 41
2019-06-01 09:00:00 17.8 10 Norte 14 Noroeste 0 -- -- 53
2019-06-01 08:00:00 13 4 Noroeste 8 Noroeste 0 -- -- 68
2019-06-01 07:00:00 10.4 6 Noroeste 14 Noroeste 0 -- -- 68
2019-06-01 06:00:00 11.4 10 Noroeste 20 Noroeste 0 -- -- 65
2019-06-01 05:00:00 11.9 10 Oeste 14 Norte 0 -- -- 58
2019-06-01 04:00:00 14.1 12 Norte 21 Norte 0 -- -- 49
2019-06-01 03:00:00 13.5 7 Noroeste 14 Noroeste 0 -- -- 48
2019-06-01 02:00:00 14.1 9 Noroeste 15 Noroeste 0 -- -- 43
2019-06-01 01:00:00 16.5 0 Calma 14 Este 0 -- -- 39
2019-06-01 00:00:00 18.2 15 Nordeste 20 Nordeste 0 -- -- 33
2019-05-31 23:00:00 20 6 Nordeste 9 Nordeste 0 -- -- 31
2019-05-31 22:00:00 25.4 0 Calma -- -- 0 -- -- 23
2019-05-31 21:00:00 31.2 0 Calma 13 Norte 0 -- -- 17
2019-05-31 20:00:00 31.9 8 Norte 15 Norte 0 -- -- 16
2019-05-31 19:00:00 32.3 2 Sudoeste 15 Noroeste 0 -- -- 17
2019-05-31 18:00:00 32.5 9 Norte 25 Norte 0 -- -- 16
2019-05-31 17:00:00 31.4 6 Noroeste 19 Norte 0 -- -- 17
2019-05-31 16:00:00 31.1 7 Norte 22 Norte 0 -- -- 18
2019-05-31 15:00:00 30.2 10 Norte 27 Noroeste 0 -- -- 21
2019-05-31 14:00:00 29.1 5 Noroeste 21 Norte 0 -- -- 24
2019-05-31 13:00:00 28.3 5 Nordeste 18 Norte 0 -- -- 25
2019-05-31 12:00:00 26.7 7 Este 18 Norte 0 -- -- 32
2019-05-31 11:00:00 23.9 9 Norte 20 Norte 0 -- -- 41
2019-05-31 10:00:00 20.9 13 Norte 22 Norte 0 -- -- 49
2019-05-31 09:00:00 17.5 16 Norte 21 Norte 0 -- -- 58
2019-05-31 08:00:00 13.9 14 Norte 18 Norte 0 -- -- 74
2019-05-31 07:00:00 11 12 Norte 13 Norte 0 -- -- 80
2019-05-31 06:00:00 11.7 6 Noroeste 12 Norte 0 -- -- 77
2019-05-31 05:00:00 14 12 Norte 21 Noroeste 0 -- -- 70
2019-05-31 04:00:00 15.6 8 Norte 20 Nordeste 0 -- -- 67
2019-05-31 03:00:00 16.5 15 Nordeste 21 Nordeste 0 -- -- 66
2019-05-31 02:00:00 16 10 Nordeste 19 Nordeste 0 -- -- 57
2019-05-31 01:00:00 17.3 13 Nordeste 26 Nordeste 0 -- -- 49
2019-05-31 00:00:00 17.3 13 Nordeste 18 Este 0 -- -- 49
2019-05-30 23:00:00 18.9 14 Este 22 Este 0 -- -- 43
2019-05-30 22:00:00 22.6 11 Este 21 Este 0 -- -- 34
2019-05-30 21:00:00 27.7 17 Este 28 Este 0 -- -- 27
2019-05-30 20:00:00 29.7 9 Nordeste 26 Nordeste 0 -- -- 23
2019-05-30 19:00:00 30.3 15 Nordeste 25 Nordeste 0 -- -- 23
2019-05-30 18:00:00 30.5 14 Nordeste 26 Este 0 -- -- 23
2019-05-30 17:00:00 30.2 12 Nordeste 25 Nordeste 0 -- -- 25
2019-05-30 16:00:00 29.7 11 Norte 34 Nordeste 0 -- -- 25
2019-05-30 15:00:00 28.4 14 Nordeste 25 Nordeste 0 -- -- 26
2019-05-30 14:00:00 27 10 Nordeste 22 Nordeste 0 -- -- 29
2019-05-30 13:00:00 24.9 10 Nordeste 21 Nordeste 0 -- -- 34
2019-05-30 12:00:00 23.1 9 Nordeste 22 Nordeste 0 -- -- 39
2019-05-30 11:00:00 20.7 8 Nordeste 20 Nordeste 0 -- -- 44
2019-05-30 10:00:00 18.2 9 Nordeste 15 Nordeste 0 -- -- 50
2019-05-30 09:00:00 15.3 12 Nordeste 20 Nordeste 0 -- -- 60
2019-05-30 08:00:00 10.7 9 Norte 16 Norte 0 -- -- 80
2019-05-30 07:00:00 7.3 10 Norte 14 Norte 0 -- -- 86
2019-05-30 06:00:00 7.4 11 Norte 15 Norte 0 -- -- 82
2019-05-30 05:00:00 7.7 9 Norte 11 Norte 0 -- -- 80
2019-05-30 04:00:00 9 7 Noroeste 10 Norte 0 -- -- 77
2019-05-30 03:00:00 10.9 4 Nordeste 15 Nordeste 0 -- -- 69
2019-05-30 02:00:00 11.8 12 Nordeste 17 Nordeste 0 -- -- 68
2019-05-30 01:00:00 13.3 11 Nordeste 17 Nordeste 0 -- -- 61
2019-05-30 00:00:00 15.2 14 Nordeste 24 Este 0 -- -- 54
2019-05-29 23:00:00 17.4 19 Este 26 Nordeste 0 -- -- 49
2019-05-29 22:00:00 19.6 17 Este 31 Este 0 -- -- 44
2019-05-29 21:00:00 23.9 15 Este 20 Este 0 -- -- 33
2019-05-29 20:00:00 25.4 13 Nordeste 29 Nordeste 0 -- -- 30
2019-05-29 19:00:00 25.9 12 Nordeste 32 Nordeste 0 -- -- 29
2019-05-29 18:00:00 25.9 13 Nordeste 26 Nordeste 0 -- -- 28
2019-05-29 17:00:00 25.2 15 Nordeste 26 Nordeste 0 -- -- 30
2019-05-29 16:00:00 24.3 10 Norte 24 Este 0 -- -- 31
2019-05-29 15:00:00 22.7 6 Norte 27 Este 0 -- -- 34
2019-05-29 14:00:00 21.4 9 Este 23 Este 0 -- -- 37
2019-05-29 13:00:00 19.9 8 Este 21 Este 0 -- -- 39
2019-05-29 12:00:00 17.8 7 Nordeste 19 Nordeste 0 -- -- 44
2019-05-29 11:00:00 16.2 9 Este 18 Este 0 -- -- 46
2019-05-29 10:00:00 14.1 10 Sudeste 16 Este 0 -- -- 54
2019-05-29 09:00:00 11.5 4 Este 10 Nordeste 0 -- -- 63
2019-05-29 08:00:00 7 5 Noroeste 9 Norte 0 -- -- 78
2019-05-29 07:00:00 4.5 4 Norte 10 Norte 0 -- -- 83
2019-05-29 06:00:00 4.5 8 Norte 10 Norte 0 -- -- 81
2019-05-29 05:00:00 5.7 6 Nordeste 8 Nordeste 0 -- -- 77
2019-05-29 04:00:00 7.2 0 Calma 13 Nordeste 0 -- -- 73
2019-05-29 03:00:00 8.3 10 Nordeste 19 Este 0 -- -- 72
2019-05-29 02:00:00 9 13 Nordeste 21 Nordeste 0 -- -- 69
2019-05-29 01:00:00 10.2 16 Este 29 Nordeste 0 -- -- 63
2019-05-29 00:00:00 11.6 15 Este 31 Nordeste 0 -- -- 56
2019-05-28 23:00:00 13.9 19 Nordeste 33 Nordeste 0 -- -- 50
2019-05-28 22:00:00 16.8 23 Nordeste 41 Norte 0 -- -- 44
2019-05-28 21:00:00 20.1 27 Norte 51 Norte 0 -- -- 33
2019-05-28 20:00:00 22.3 29 Norte 43 Norte 0 -- -- 31
2019-05-28 19:00:00 24.4 24 Norte 41 Norte 0 -- -- 27
2019-05-28 18:00:00 24.9 23 Norte 36 Norte 0 -- -- 26
2019-05-28 17:00:00 25 22 Norte 39 Norte 0 -- -- 25
2019-05-28 16:00:00 24.3 19 Norte 33 Norte 0 -- -- 26
2019-05-28 15:00:00 22.2 13 Noroeste 27 Norte 0 -- -- 28
2019-05-28 14:00:00 21.4 14 Norte 25 Norte 0 -- -- 29
2019-05-28 13:00:00 19.6 10 Norte 27 Noroeste 0 -- -- 35
2019-05-28 12:00:00 17.9 11 Nordeste 32 Nordeste 0 -- -- 39
2019-05-28 11:00:00 15.8 14 Nordeste 35 Nordeste 0 -- -- 47
2019-05-28 10:00:00 13.7 13 Nordeste 27 Nordeste 0 -- -- 56
2019-05-28 09:00:00 11.9 17 Este 25 Nordeste 0 -- -- 65
2019-05-28 08:00:00 7.7 6 Norte 10 Nordeste 0 -- -- 81
2019-05-28 07:00:00 5.6 7 Norte 12 Nordeste 0 -- -- 83
2019-05-28 06:00:00 7.1 8 Nordeste 18 Nordeste 0 -- -- 79
2019-05-28 05:00:00 8.4 14 Nordeste 22 Nordeste 0 -- -- 76
2019-05-28 04:00:00 9 15 Nordeste 26 Nordeste 0 -- -- 77
2019-05-28 03:00:00 9.9 16 Nordeste 25 Nordeste 0 -- -- 76
2019-05-28 02:00:00 10.8 16 Nordeste 30 Nordeste 0 -- -- 76
2019-05-28 01:00:00 12 17 Nordeste 35 Nordeste 0 -- -- 72
2019-05-28 00:00:00 14 23 Nordeste 37 Nordeste 0 -- -- 67
2019-05-27 23:00:00 16.3 22 Nordeste 41 Norte 0 -- -- 59
2019-05-27 22:00:00 18.8 30 Norte 40 Norte 0 -- -- 43
2019-05-27 21:00:00 22.2 26 Norte 35 Norte 0 -- -- 36
2019-05-27 20:00:00 25.2 23 Norte 31 Norte 0 -- -- 33
2019-05-27 19:00:00 26.3 15 Norte 29 Norte 0 -- -- 32
2019-05-27 18:00:00 26.8 13 Noroeste 27 Noroeste 0 -- -- 30
2019-05-27 17:00:00 27.3 9 Norte 25 Norte 0 -- -- 31
2019-05-27 16:00:00 27 14 Noroeste 31 Norte 0 -- -- 31
2019-05-27 15:00:00 25.1 7 Oeste 30 Norte 0 -- -- 34
2019-05-27 14:00:00 24.5 11 Noroeste 24 Noroeste 0 -- -- 37
2019-05-27 13:00:00 23.4 7 Nordeste 18 Norte 0 -- -- 39
2019-05-27 12:00:00 21.4 8 Noroeste 17 Norte 0 -- -- 43
2019-05-27 11:00:00 19.2 8 Norte 14 Norte 0 -- -- 51
2019-05-27 10:00:00 17.1 6 Nordeste 13 Este 0 -- -- 56
2019-05-27 09:00:00 14.3 9 Este 14 Nordeste 0 -- -- 66
2019-05-27 08:00:00 10.9 4 Nordeste 12 Norte 0 -- -- 76
2019-05-27 07:00:00 7.8 11 Norte 14 Norte 0 -- -- 85
2019-05-27 06:00:00 8.1 9 Noroeste 11 Noroeste 0 -- -- 82
2019-05-27 05:00:00 10.3 4 Nordeste 11 Norte 0 -- -- 74
2019-05-27 04:00:00 11.1 9 Norte 12 Este 0 -- -- 73
2019-05-27 03:00:00 12.4 5 Nordeste 12 Nordeste 0 -- -- 67
2019-05-27 02:00:00 13.8 7 Nordeste 15 Nordeste 0 -- -- 62
2019-05-27 01:00:00 15.2 12 Nordeste 20 Norte 0 -- -- 56
2019-05-27 00:00:00 17.1 12 Nordeste 26 Nordeste 0 -- -- 51
2019-05-26 23:00:00 19.2 20 Nordeste 32 Nordeste 0 -- -- 49
2019-05-26 22:00:00 23 21 Nordeste 30 Nordeste 0 -- -- 41
2019-05-26 21:00:00 26.8 13 Norte 24 Norte 0 -- -- 28
2019-05-26 20:00:00 28.8 13 Norte 28 Norte 0 -- -- 26
2019-05-26 19:00:00 28.2 13 Norte 28 Norte 0 -- -- 28
2019-05-26 18:00:00 29 14 Norte 38 Norte 0 -- -- 28
2019-05-26 17:00:00 28.5 21 Norte 34 Norte 0 -- -- 28
2019-05-26 16:00:00 26.7 14 Nordeste 24 Nordeste 0 -- -- 31
2019-05-26 15:00:00 24.6 8 Norte 21 Norte 0 -- -- 34
2019-05-26 14:00:00 22.7 6 Nordeste 17 Noroeste 0 -- -- 38
2019-05-26 13:00:00 20 3 Nordeste 17 Este 0 -- -- 45
2019-05-26 12:00:00 18.1 7 Nordeste 22 Este 0 -- -- 50
2019-05-26 11:00:00 16.1 6 Este 16 Este 0 -- -- 55
2019-05-26 10:00:00 14.6 8 Nordeste 17 Este 0 -- -- 59
2019-05-26 09:00:00 11.6 3 Nordeste 9 Noroeste 0 -- -- 69
2019-05-26 08:00:00 7.3 4 Noroeste 6 Noroeste 0 -- -- 83
2019-05-26 07:00:00 5 5 Oeste 8 Norte 0 -- -- 82
2019-05-26 06:00:00 5.9 3 Noroeste 5 Noroeste 0 -- -- 81
2019-05-26 05:00:00 6.8 4 Nordeste 12 Nordeste 0 -- -- 78
2019-05-26 04:00:00 7.8 8 Nordeste 12 Nordeste 0 -- -- 76
2019-05-26 03:00:00 9 7 Nordeste 24 Este 0 -- -- 72
2019-05-26 02:00:00 10.3 14 Nordeste 19 Este 0 -- -- 70
2019-05-26 01:00:00 11.4 6 Nordeste 17 Nordeste 0 -- -- 61
2019-05-26 00:00:00 13.1 14 Nordeste 25 Nordeste 0 -- -- 56
2019-05-25 23:00:00 14.5 19 Nordeste 30 Nordeste 0 -- -- 54
2019-05-25 22:00:00 16.7 22 Nordeste 36 Este 0 -- -- 48
2019-05-25 21:00:00 19.8 26 Este 45 Este 0 -- -- 41
2019-05-25 20:00:00 23.9 15 Este 29 Nordeste 0 -- -- 31
2019-05-25 19:00:00 24.5 13 Nordeste 24 Nordeste 0 -- -- 27
2019-05-25 18:00:00 24.3 9 Norte 27 Nordeste 0 -- -- 27
2019-05-25 17:00:00 23.8 15 Norte 29 Nordeste 0 -- -- 27
2019-05-25 16:00:00 22.1 9 Sudoeste 23 Este 0 -- -- 31
2019-05-25 15:00:00 21.8 8 Este 28 Nordeste 0 -- -- 35
2019-05-25 14:00:00 20.5 8 Nordeste 27 Nordeste 0 -- -- 38
2019-05-25 13:00:00 19.4 11 Nordeste 27 Este 0 -- -- 41
2019-05-25 12:00:00 18 12 Este 26 Este 0 -- -- 46
2019-05-25 11:00:00 15.1 13 Nordeste 26 Nordeste 0 -- -- 53
2019-05-25 10:00:00 14.5 10 Este 17 Este 0 -- -- 58
2019-05-25 09:00:00 11.6 6 Nordeste 12 Nordeste 0 -- -- 70
2019-05-25 08:00:00 6.7 2 Norte 6 Noroeste 0 -- -- 85
2019-05-25 07:00:00 4.2 5 Noroeste 6 Noroeste 0 -- -- 87
2019-05-25 06:00:00 4.6 4 Noroeste 6 Noroeste 0 -- -- 85
2019-05-25 05:00:00 5.1 7 Norte 9 Noroeste 0 -- -- 85
2019-05-25 04:00:00 6 7 Noroeste 17 Nordeste 0 -- -- 83
2019-05-25 03:00:00 7.9 13 Nordeste 21 Norte 0 -- -- 80
2019-05-25 02:00:00 9.3 12 Nordeste 19 Nordeste 0 -- -- 75
2019-05-25 01:00:00 10 13 Nordeste 21 Nordeste 0 -- -- 71
2019-05-25 00:00:00 11.3 12 Nordeste 24 Nordeste 0 -- -- 66
2019-05-24 23:00:00 12.6 15 Nordeste 35 Este 0 -- -- 60
2019-05-24 22:00:00 14.3 24 Nordeste 42 Nordeste 0 -- -- 53
2019-05-24 21:00:00 16.9 29 Nordeste 44 Este 0 -- -- 46
2019-05-24 20:00:00 20.3 31 Nordeste 53 Nordeste 0 -- -- 38
2019-05-24 19:00:00 22.1 21 Norte 46 Norte 0 -- -- 25
2019-05-24 18:00:00 23.6 25 Norte 42 Norte 0 -- -- 27
2019-05-24 17:00:00 23.3 22 Norte 36 Norte 0 -- -- 27
2019-05-24 16:00:00 22.8 21 Norte 37 Norte 0 -- -- 29
2019-05-24 15:00:00 21.9 21 Norte 42 Noroeste 0 -- -- 30
2019-05-24 14:00:00 21.1 12 Nordeste 31 Norte 0 -- -- 29
2019-05-24 13:00:00 19.7 18 Norte 32 Norte 0 -- -- 33
2019-05-24 12:00:00 18.5 20 Norte 35 Norte 0 -- -- 33
2019-05-24 11:00:00 16.6 23 Norte 35 Norte 0 -- -- 39
2019-05-24 10:00:00 14.4 22 Norte 44 Norte 0 -- -- 45
2019-05-24 09:00:00 11.6 18 Norte 25 Norte 0 -- -- 58
2019-05-24 08:00:00 7.2 11 Norte 17 Norte 0 -- -- 78
2019-05-24 07:00:00 6.8 13 Norte 17 Norte 0 -- -- 80
2019-05-24 06:00:00 6.8 9 Norte 13 Norte 0 -- -- 82
2019-05-24 05:00:00 8.4 9 Norte 17 Norte 0 -- -- 76
2019-05-24 04:00:00 11 12 Norte 19 Norte 0 -- -- 70
2019-05-24 03:00:00 11.8 8 Norte 15 Norte 0 -- -- 67
2019-05-24 02:00:00 13.4 14 Nordeste 20 Nordeste 0 -- -- 71
2019-05-24 01:00:00 14.1 8 Nordeste 15 Nordeste 0 -- -- 67
2019-05-24 00:00:00 16.1 14 Norte 35 Noroeste 0 -- -- 56
2019-05-23 23:00:00 17.7 24 Noroeste 42 Noroeste 0 -- -- 47
2019-05-23 22:00:00 18.9 16 Noroeste 31 Noroeste 0 -- -- 45
2019-05-23 21:00:00 21 26 Noroeste 36 Noroeste 0 -- -- 44
2019-05-23 20:00:00 23.5 26 Oeste 39 Sudoeste 0 -- -- 35
2019-05-23 19:00:00 25.2 24 Sudoeste 38 Sudoeste 0 -- -- 29
2019-05-23 18:00:00 26.2 23 Oeste 39 Oeste 0 -- -- 27
2019-05-23 17:00:00 25.5 21 Sudoeste 37 Sudoeste 0 -- -- 31
2019-05-23 16:00:00 25.6 10 Sudoeste 60 Sudoeste 0 -- -- 33
2019-05-23 15:00:00 25.5 11 Sur 34 Sudoeste 0 -- -- 34
2019-05-23 14:00:00 24.2 14 Oeste 27 Sudoeste 0 -- -- 37
2019-05-23 13:00:00 23.2 9 Oeste 18 Sudoeste 0 -- -- 43
2019-05-23 12:00:00 20.8 6 Oeste 16 Noroeste 0 -- -- 50
2019-05-23 11:00:00 17.7 2 Oeste 12 Oeste 0 -- -- 57
2019-05-23 10:00:00 16.5 0 Calma 6 Este 0 -- -- 59
2019-05-23 09:00:00 13.4 0 Calma -- -- 0 -- -- 73
2019-05-23 08:00:00 10.6 0 Calma 5 Noroeste 0 -- -- 79
2019-05-23 07:00:00 9.6 0 Calma 5 Noroeste 0 -- -- 79
2019-05-23 06:00:00 9.5 0 Calma 7 Sudoeste 0 -- -- 75
2019-05-23 05:00:00 11 7 Sudoeste 8 Sudoeste 0 -- -- 72
2019-05-23 04:00:00 12 5 Sudeste 21 Este 0 -- -- 70
2019-05-23 03:00:00 12.9 13 Noroeste 19 Oeste 0 -- -- 66
2019-05-23 02:00:00 12.4 11 Norte 15 Oeste 0 -- -- 64
2019-05-23 01:00:00 13.7 14 Oeste 19 Oeste 0 -- -- 56
2019-05-23 00:00:00 13.8 0 Calma 6 Oeste 0 -- -- 54
2019-05-22 23:00:00 16 6 Oeste 12 Oeste -- -- -- 47
2019-05-22 22:00:00 19.5 10 Oeste 19 Sudoeste 0 -- -- 40
2019-05-22 21:00:00 24.2 15 Oeste 27 Oeste 0 -- -- 30
2019-05-22 20:00:00 25.8 17 Sudoeste 27 Sudoeste 0 -- -- 26
2019-05-22 19:00:00 26.2 14 Oeste 25 Sudoeste 0 -- -- 27
2019-05-22 18:00:00 26.8 13 Sudoeste 25 Sudoeste 0 -- -- 26
2019-05-22 17:00:00 26.4 14 Oeste 27 Noroeste 0 -- -- 26
2019-05-22 16:00:00 25.6 14 Oeste 30 Sudoeste 0 -- -- 27
2019-05-22 15:00:00 24.9 13 Sudoeste 24 Sudoeste 0 -- -- 28
2019-05-22 14:00:00 24.2 8 Sur 17 Sudoeste 0 -- -- 29
2019-05-22 13:00:00 22.5 6 Sudoeste 12 Este 0 -- -- 33
2019-05-22 12:00:00 20.8 3 Noroeste 16 Nordeste 0 -- -- 38
2019-05-22 11:00:00 17.8 5 Nordeste 22 Nordeste 0 -- -- 44
2019-05-22 10:00:00 15.4 5 Nordeste 21 Nordeste 0 -- -- 50
2019-05-22 09:00:00 12.5 14 Nordeste 21 Nordeste 0 -- -- 57
2019-05-22 08:00:00 8 8 Noroeste 16 Norte 0 -- -- 82
2019-05-22 07:00:00 6.1 7 Norte 14 Norte 0 -- -- 86
2019-05-22 06:00:00 7.3 12 Norte 18 Norte 0 -- -- 84
2019-05-22 05:00:00 8.2 12 Norte 17 Norte 0 -- -- 83
2019-05-22 04:00:00 8.8 12 Norte 17 Noroeste 0 -- -- 82
2019-05-22 03:00:00 10.5 12 Noroeste 21 Noroeste 0 -- -- 74
2019-05-22 02:00:00 11.9 11 Nordeste 27 Nordeste 0 -- -- 69
2019-05-22 01:00:00 12.5 18 Este 26 Nordeste 0 -- -- 67
2019-05-22 00:00:00 13.6 19 Nordeste 33 Nordeste 0 -- -- 52